createdAt,value
2023-02-17T00:00:33.302Z,68.38
2023-02-17T00:03:34.936Z,68.36
2023-02-17T00:06:36.663Z,68.40
2023-02-17T00:09:38.189Z,68.40
2023-02-17T00:12:39.812Z,68.36
2023-02-17T00:15:41.374Z,68.34
2023-02-17T00:18:43.010Z,68.31
2023-02-17T00:21:44.608Z,68.37
2023-02-17T00:24:46.309Z,68.58
2023-02-17T00:27:47.866Z,68.74
2023-02-17T00:30:49.462Z,68.66
2023-02-17T00:33:54.211Z,68.74
2023-02-17T00:36:55.831Z,68.79
2023-02-17T00:39:57.508Z,68.56
2023-02-17T00:42:59.120Z,68.52
2023-02-17T00:46:04.192Z,68.55
2023-02-17T00:49:06.011Z,68.56
2023-02-17T00:52:07.625Z,68.74
2023-02-17T00:55:09.314Z,68.93
2023-02-17T00:58:11.047Z,68.87
2023-02-17T01:01:12.726Z,68.88
2023-02-17T01:04:15.146Z,68.99
2023-02-17T01:07:16.783Z,68.98
2023-02-17T01:10:18.516Z,69.01
2023-02-17T01:13:20.194Z,68.98
2023-02-17T01:16:26.110Z,69.12
2023-02-17T01:19:27.627Z,69.22
2023-02-17T01:22:29.653Z,69.27
2023-02-17T01:25:31.493Z,69.33
2023-02-17T01:28:33.246Z,69.28
2023-02-17T01:31:34.958Z,69.27
2023-02-17T01:34:37.572Z,69.34
2023-02-17T01:37:41.132Z,69.25
2023-02-17T01:40:49.773Z,69.28
2023-02-17T01:44:10.109Z,69.39
2023-02-17T01:47:12.563Z,69.48
2023-02-17T01:50:14.753Z,69.60
2023-02-17T01:53:22.092Z,69.63
2023-02-17T01:56:23.585Z,69.65
2023-02-17T01:59:25.158Z,69.63
2023-02-17T02:02:30.179Z,69.60
2023-02-17T02:05:32.026Z,69.62
2023-02-17T02:08:41.816Z,69.55
2023-02-17T02:11:43.413Z,69.40
2023-02-17T02:14:45.004Z,69.31
2023-02-17T02:18:03.927Z,69.40
2023-02-17T02:21:39.484Z,69.51
2023-02-17T02:25:00.029Z,69.64
2023-02-17T02:28:29.670Z,69.64
2023-02-17T02:31:46.463Z,69.54
2023-02-17T02:34:53.835Z,69.64
2023-02-17T02:38:06.710Z,69.61
2023-02-17T02:41:17.358Z,69.53
2023-02-17T02:44:21.305Z,69.59
2023-02-17T02:47:45.959Z,69.68
2023-02-17T02:50:58.029Z,69.77
2023-02-17T02:54:19.953Z,69.98
2023-02-17T02:57:41.010Z,70.04
2023-02-17T03:00:54.202Z,70.09
2023-02-17T03:04:19.023Z,70.10
2023-02-17T03:07:32.152Z,70.12
2023-02-17T03:10:33.700Z,70.10
2023-02-17T03:13:39.403Z,70.05
2023-02-17T03:16:42.901Z,70.14
2023-02-17T03:19:47.815Z,70.28
2023-02-17T03:22:50.769Z,70.33
2023-02-17T03:25:52.372Z,70.59
2023-02-17T03:28:54.010Z,70.54
2023-02-17T03:31:55.831Z,70.79
2023-02-17T03:34:57.488Z,70.89
2023-02-17T03:37:59.085Z,70.71
2023-02-17T03:41:00.630Z,70.74
2023-02-17T03:44:02.220Z,70.67
2023-02-17T03:47:03.965Z,70.61
2023-02-17T03:50:06.259Z,70.53
2023-02-17T03:53:07.867Z,70.62
2023-02-17T03:56:10.108Z,70.60
2023-02-17T03:59:11.654Z,70.75
2023-02-17T04:02:13.275Z,70.78
2023-02-17T04:05:14.879Z,70.80
2023-02-17T04:08:16.448Z,70.90
2023-02-17T04:11:18.057Z,70.95
2023-02-17T04:14:19.608Z,71.01
2023-02-17T04:17:21.217Z,71.27
2023-02-17T04:20:22.756Z,71.39
2023-02-17T04:23:24.326Z,71.58
2023-02-17T04:26:25.815Z,71.75
2023-02-17T04:29:27.410Z,71.67
2023-02-17T04:32:29.101Z,71.87
2023-02-17T04:35:30.692Z,71.69
2023-02-17T04:38:32.830Z,71.61
2023-02-17T04:41:34.420Z,71.77
2023-02-17T04:44:35.982Z,71.85
2023-02-17T04:47:37.558Z,71.81
2023-02-17T04:50:39.166Z,71.69
2023-02-17T04:53:40.696Z,71.66
2023-02-17T04:56:42.245Z,71.70
2023-02-17T04:59:44.003Z,71.66
2023-02-17T05:02:45.591Z,71.47
2023-02-17T05:05:47.241Z,71.47
2023-02-17T05:08:50.626Z,71.35
2023-02-17T05:11:52.177Z,71.55
2023-02-17T05:14:53.744Z,71.57
2023-02-17T05:17:55.256Z,71.72
2023-02-17T05:20:56.871Z,71.78
2023-02-17T05:23:58.634Z,71.87
2023-02-17T05:27:00.227Z,72.03
2023-02-17T05:30:01.912Z,71.87
2023-02-17T05:33:03.548Z,71.87
2023-02-17T05:36:09.187Z,71.69
2023-02-17T05:39:10.839Z,71.69
2023-02-17T05:42:12.526Z,71.70
2023-02-17T05:45:14.222Z,71.81
2023-02-17T05:48:15.808Z,72.02
2023-02-17T05:51:17.506Z,72.19
2023-02-17T05:54:19.138Z,72.33
2023-02-17T05:57:20.686Z,72.34
2023-02-17T06:00:22.397Z,72.28
2023-02-17T06:03:23.960Z,72.35
2023-02-17T06:06:25.477Z,72.24
2023-02-17T06:09:27.141Z,72.19
2023-02-17T06:12:28.718Z,72.18
2023-02-17T06:15:30.505Z,72.09
2023-02-17T06:18:32.105Z,72.24
2023-02-17T06:21:33.779Z,72.30
2023-02-17T06:24:35.425Z,72.39
2023-02-17T06:27:37.014Z,72.34
2023-02-17T06:30:38.637Z,72.35
2023-02-17T06:33:40.201Z,72.32
2023-02-17T06:36:41.856Z,72.13
2023-02-17T06:39:43.465Z,72.19
2023-02-17T06:42:45.020Z,72.37
2023-02-17T06:45:46.835Z,72.45
2023-02-17T06:48:48.510Z,72.54
2023-02-17T06:51:50.169Z,72.77
2023-02-17T06:54:51.788Z,72.77
2023-02-17T06:57:53.418Z,72.87
2023-02-17T07:00:54.936Z,72.84
2023-02-17T07:03:56.993Z,72.66
2023-02-17T07:06:58.627Z,72.75
2023-02-17T07:10:00.264Z,72.90
2023-02-17T07:13:01.808Z,72.95
2023-02-17T07:16:03.736Z,73.18
2023-02-17T07:19:05.431Z,73.35
2023-02-17T07:22:07.056Z,73.36
2023-02-17T07:25:08.593Z,73.35
2023-02-17T07:28:10.589Z,73.36
2023-02-17T07:31:15.432Z,73.11
2023-02-17T07:34:16.943Z,73.20
2023-02-17T07:37:21.803Z,73.31
2023-02-17T07:40:23.451Z,73.27
2023-02-17T07:43:25.104Z,73.24
2023-02-17T07:46:26.975Z,73.24
2023-02-17T07:49:28.662Z,73.22
2023-02-17T07:52:30.279Z,73.43
2023-02-17T07:55:31.931Z,73.55
2023-02-17T07:58:34.952Z,73.64
2023-02-17T08:01:36.701Z,73.69
2023-02-17T08:04:38.394Z,73.69
2023-02-17T08:07:39.972Z,73.77
2023-02-17T08:10:59.935Z,73.61
2023-02-17T08:14:02.160Z,73.64
2023-02-17T08:17:03.793Z,73.58
2023-02-17T08:20:08.972Z,73.57
2023-02-17T08:23:11.122Z,73.68
2023-02-17T08:26:12.753Z,73.71
2023-02-17T08:29:15.026Z,73.82
2023-02-17T08:32:17.325Z,73.88
2023-02-17T08:35:22.452Z,73.93
2023-02-17T08:38:24.097Z,73.98
2023-02-17T08:41:33.999Z,73.87
2023-02-17T08:44:36.217Z,73.71
2023-02-17T08:47:37.806Z,73.71
2023-02-17T08:50:39.424Z,73.59
2023-02-17T08:53:41.558Z,73.56
2023-02-17T08:56:43.876Z,73.45
2023-02-17T08:59:48.128Z,73.58
2023-02-17T09:02:50.571Z,73.54
2023-02-17T09:05:58.515Z,73.76
2023-02-17T09:09:00.611Z,73.98
2023-02-17T09:12:02.371Z,74.01
2023-02-17T09:15:04.613Z,74.03
2023-02-17T09:18:06.492Z,73.86
2023-02-17T09:21:10.357Z,73.86
2023-02-17T09:24:12.339Z,73.69
2023-02-17T09:27:14.178Z,73.53
2023-02-17T09:30:15.826Z,73.24
2023-02-17T09:33:17.459Z,73.08
2023-02-17T09:36:24.609Z,72.96
2023-02-17T09:39:26.551Z,72.75
2023-02-17T09:42:28.747Z,72.50
2023-02-17T09:45:35.036Z,72.47
2023-02-17T09:48:37.174Z,72.38
2023-02-17T09:52:00.454Z,72.33
2023-02-17T09:55:13.842Z,72.38
2023-02-17T09:58:27.995Z,72.35
2023-02-17T10:01:31.381Z,72.22
2023-02-17T10:04:39.192Z,72.10
2023-02-17T10:07:47.434Z,71.99
2023-02-17T10:11:00.788Z,71.89
2023-02-17T10:14:15.126Z,71.73
2023-02-17T10:17:55.750Z,71.47
2023-02-17T10:21:07.284Z,71.39
2023-02-17T10:24:09.985Z,71.22
2023-02-17T10:27:28.600Z,71.14
2023-02-17T10:30:42.221Z,70.89
2023-02-17T10:33:56.492Z,70.66
2023-02-17T10:37:01.728Z,70.51
2023-02-17T10:40:19.735Z,70.46
2023-02-17T10:43:32.071Z,70.13
2023-02-17T10:46:34.993Z,69.93
2023-02-17T10:49:40.173Z,69.58
2023-02-17T10:52:42.184Z,69.74
2023-02-17T10:55:53.548Z,69.65
2023-02-17T10:59:02.988Z,69.46
2023-02-17T11:02:25.380Z,69.16
2023-02-17T11:05:30.017Z,68.88
2023-02-17T11:08:44.770Z,68.64
2023-02-17T11:11:59.003Z,68.32
2023-02-17T11:15:03.749Z,67.97
2023-02-17T11:18:18.649Z,67.81
2023-02-17T11:21:20.504Z,67.35
2023-02-17T11:24:22.515Z,67.14
2023-02-17T11:27:25.348Z,66.92
2023-02-17T11:30:29.678Z,66.49
2023-02-17T11:33:37.560Z,66.21
2023-02-17T11:36:39.192Z,66.14
2023-02-17T11:39:49.318Z,65.81
2023-02-17T11:42:58.582Z,65.62
2023-02-17T11:46:09.285Z,65.26
2023-02-17T11:49:45.037Z,65.12
2023-02-17T11:52:49.786Z,64.97
2023-02-17T11:56:30.048Z,64.86
2023-02-17T11:59:40.531Z,64.51
2023-02-17T12:03:10.307Z,64.42
2023-02-17T12:06:22.693Z,64.06
2023-02-17T12:09:32.686Z,63.76
2023-02-17T12:13:08.309Z,63.69
2023-02-17T12:16:27.545Z,63.40
2023-02-17T12:19:31.998Z,63.29
2023-02-17T12:22:41.724Z,63.11
2023-02-17T12:26:19.534Z,62.86
2023-02-17T12:30:00.426Z,62.76
2023-02-17T12:33:19.964Z,62.55
2023-02-17T12:36:23.649Z,62.34
2023-02-17T12:39:31.079Z,62.11
2023-02-17T12:42:36.501Z,61.91
2023-02-17T12:45:43.504Z,61.73
2023-02-17T12:48:50.231Z,61.56
2023-02-17T12:51:59.973Z,61.25
2023-02-17T12:55:05.635Z,60.92
2023-02-17T12:58:08.205Z,60.78
2023-02-17T13:01:12.700Z,60.73
2023-02-17T13:04:17.653Z,60.57
2023-02-17T13:07:34.322Z,60.22
2023-02-17T13:10:38.236Z,60.02
2023-02-17T13:13:39.903Z,59.88
2023-02-17T13:16:45.679Z,59.60
2023-02-17T13:19:47.333Z,59.43
2023-02-17T13:22:49.145Z,59.22
2023-02-17T13:26:04.337Z,59.04
2023-02-17T13:29:20.608Z,58.72
2023-02-17T13:32:27.964Z,58.52
2023-02-17T13:35:34.137Z,58.40
2023-02-17T13:38:35.960Z,58.22
2023-02-17T13:41:48.336Z,58.11
2023-02-17T13:44:51.361Z,57.93
2023-02-17T13:47:55.946Z,57.85
2023-02-17T13:50:59.507Z,57.55
2023-02-17T13:54:24.140Z,57.35
2023-02-17T13:57:30.605Z,57.29
2023-02-17T14:00:32.402Z,57.04
2023-02-17T14:03:42.633Z,56.96
2023-02-17T14:06:44.366Z,56.80
2023-02-17T14:09:53.679Z,56.75
2023-02-17T14:12:55.848Z,56.70
2023-02-17T14:15:59.839Z,56.67
2023-02-17T14:19:21.642Z,56.50
2023-02-17T14:22:32.192Z,56.43
2023-02-17T14:25:36.547Z,56.40
2023-02-17T14:28:38.058Z,56.30
2023-02-17T14:31:49.570Z,56.31
2023-02-17T14:34:51.252Z,56.28
2023-02-17T14:37:52.957Z,56.26
2023-02-17T14:40:55.958Z,56.31
2023-02-17T14:43:58.102Z,56.23
2023-02-17T14:47:00.279Z,56.21
2023-02-17T14:50:01.921Z,56.21
2023-02-17T14:53:03.498Z,56.18
2023-02-17T14:56:25.498Z,56.22
2023-02-17T14:59:27.092Z,56.22
2023-02-17T15:02:30.301Z,56.18
2023-02-17T15:05:31.988Z,56.13
2023-02-17T15:08:35.038Z,56.18
2023-02-17T15:11:37.088Z,56.19
2023-02-17T15:14:38.667Z,56.26
2023-02-17T15:17:40.229Z,56.32
2023-02-17T15:20:43.764Z,56.32
2023-02-17T15:23:45.322Z,56.16
2023-02-17T15:26:48.129Z,56.21
2023-02-17T15:29:49.777Z,56.17
2023-02-17T15:32:51.434Z,56.20
2023-02-17T15:35:54.048Z,56.18
2023-02-17T15:38:55.664Z,56.26
2023-02-17T15:41:59.340Z,56.13
2023-02-17T15:45:00.947Z,56.22
2023-02-17T15:48:08.623Z,56.22
2023-02-17T15:51:13.157Z,56.07
2023-02-17T15:54:19.117Z,56.05
2023-02-17T15:57:24.882Z,56.08
2023-02-17T16:00:29.051Z,56.07
2023-02-17T16:03:30.698Z,56.03
2023-02-17T16:06:32.338Z,56.05
2023-02-17T16:09:34.028Z,56.07
2023-02-17T16:12:35.711Z,55.98
2023-02-17T16:15:38.448Z,56.15
2023-02-17T16:18:40.162Z,56.07
2023-02-17T16:21:41.762Z,56.17
2023-02-17T16:24:43.405Z,56.27
2023-02-17T16:27:46.292Z,56.39
2023-02-17T16:30:49.647Z,56.43
2023-02-17T16:33:51.848Z,56.59
2023-02-17T16:36:56.385Z,56.65
2023-02-17T16:39:57.981Z,56.77
2023-02-17T16:42:59.999Z,56.88
2023-02-17T16:46:03.737Z,57.01
2023-02-17T16:49:31.993Z,57.19
2023-02-17T16:52:34.097Z,57.30
2023-02-17T16:55:36.642Z,57.42
2023-02-17T16:58:38.855Z,57.56
2023-02-17T17:01:40.489Z,57.61
2023-02-17T17:04:42.135Z,57.85
2023-02-17T17:07:43.991Z,57.94
2023-02-17T17:10:46.193Z,58.06
2023-02-17T17:13:47.791Z,58.32
2023-02-17T17:16:52.745Z,58.30
2023-02-17T17:19:54.686Z,58.39
2023-02-17T17:22:56.722Z,58.55
2023-02-17T17:25:58.913Z,58.62
2023-02-17T17:29:01.020Z,58.79
2023-02-17T17:32:02.725Z,59.20
2023-02-17T17:35:04.542Z,59.35
2023-02-17T17:38:06.224Z,59.70
2023-02-17T17:41:11.770Z,59.71
2023-02-17T17:44:13.510Z,59.75
2023-02-17T17:47:29.516Z,59.73
2023-02-17T17:50:31.696Z,59.84
2023-02-17T17:53:33.306Z,59.83
2023-02-17T17:56:38.853Z,60.01
2023-02-17T17:59:40.490Z,60.08
2023-02-17T18:02:42.552Z,60.14
2023-02-17T18:05:44.267Z,60.34
2023-02-17T18:08:46.889Z,60.39
2023-02-17T18:11:49.803Z,60.30
2023-02-17T18:14:53.320Z,60.38
2023-02-17T18:17:55.163Z,60.45
2023-02-17T18:20:56.850Z,60.52
2023-02-17T18:23:58.429Z,60.69
2023-02-17T18:27:00.004Z,60.84
2023-02-17T18:30:01.684Z,60.80
2023-02-17T18:33:03.368Z,60.87
2023-02-17T18:36:24.197Z,61.11
2023-02-17T18:39:26.020Z,61.47
2023-02-17T18:42:27.602Z,61.54
2023-02-17T18:45:29.260Z,61.70
2023-02-17T18:48:31.737Z,61.78
2023-02-17T18:51:33.336Z,61.91
2023-02-17T18:54:34.903Z,61.99
2023-02-17T18:57:36.637Z,61.98
2023-02-17T19:00:38.232Z,62.06
2023-02-17T19:03:39.793Z,62.19
2023-02-17T19:06:41.669Z,62.24
2023-02-17T19:09:43.358Z,62.24
2023-02-17T19:12:44.934Z,62.13
2023-02-17T19:15:46.569Z,62.16
2023-02-17T19:18:48.328Z,62.31
2023-02-17T19:21:50.017Z,62.53
2023-02-17T19:24:53.476Z,62.67
2023-02-17T19:27:55.036Z,62.95
2023-02-17T19:30:57.690Z,63.15
2023-02-17T19:33:59.262Z,63.32
2023-02-17T19:37:01.021Z,63.35
2023-02-17T19:40:02.726Z,63.37
2023-02-17T19:43:04.349Z,63.30
2023-02-17T19:46:06.946Z,63.45
2023-02-17T19:49:08.761Z,63.43
2023-02-17T19:52:10.699Z,63.54
2023-02-17T19:55:12.519Z,63.58
2023-02-17T19:58:14.132Z,63.68
2023-02-17T20:01:19.388Z,63.82
2023-02-17T20:04:21.105Z,63.93
2023-02-17T20:07:23.052Z,64.38
2023-02-17T20:10:24.808Z,64.60
2023-02-17T20:13:28.626Z,64.59
2023-02-17T20:16:32.142Z,64.58
2023-02-17T20:19:38.506Z,64.62
2023-02-17T20:22:40.523Z,64.54
2023-02-17T20:25:42.160Z,64.55
2023-02-17T20:28:44.120Z,64.47
2023-02-17T20:31:45.824Z,64.80
2023-02-17T20:34:47.543Z,65.05
2023-02-17T20:37:49.100Z,65.24
2023-02-17T20:40:50.718Z,65.51
2023-02-17T20:43:53.018Z,65.76
2023-02-17T20:46:55.263Z,65.91
2023-02-17T20:49:56.837Z,66.18
2023-02-17T20:52:58.514Z,66.39
2023-02-17T20:56:00.197Z,66.61
2023-02-17T20:59:02.048Z,66.81
2023-02-17T21:02:03.688Z,66.94
2023-02-17T21:05:05.463Z,66.82
2023-02-17T21:08:07.094Z,66.88
2023-02-17T21:11:08.762Z,66.62
2023-02-17T21:14:10.438Z,66.57
2023-02-17T21:17:12.226Z,66.50
2023-02-17T21:20:19.431Z,66.57
2023-02-17T21:23:22.643Z,66.67
2023-02-17T21:26:24.632Z,66.67
2023-02-17T21:29:26.275Z,66.79
2023-02-17T21:32:27.863Z,66.90
2023-02-17T21:35:29.473Z,66.97
2023-02-17T21:38:31.027Z,67.41
2023-02-17T21:41:32.725Z,67.35
2023-02-17T21:44:52.530Z,67.31
2023-02-17T21:47:54.241Z,67.25
2023-02-17T21:51:07.506Z,67.18
2023-02-17T21:54:09.777Z,67.09
2023-02-17T21:57:11.402Z,67.18
2023-02-17T22:00:13.741Z,67.28
2023-02-17T22:03:15.367Z,67.51
2023-02-17T22:06:32.466Z,67.67
2023-02-17T22:09:34.020Z,67.83
2023-02-17T22:12:37.158Z,67.85
2023-02-17T22:15:39.163Z,68.04
2023-02-17T22:18:41.314Z,68.10
2023-02-17T22:21:43.205Z,68.07
2023-02-17T22:24:44.826Z,68.18
2023-02-17T22:27:46.519Z,68.26
2023-02-17T22:30:52.847Z,68.36
2023-02-17T22:33:56.618Z,68.38
2023-02-17T22:36:58.209Z,68.30
2023-02-17T22:40:00.329Z,68.40
2023-02-17T22:43:02.107Z,68.59
2023-02-17T22:46:04.320Z,68.83
2023-02-17T22:49:06.179Z,68.89
2023-02-17T22:52:07.846Z,69.01
2023-02-17T22:55:09.699Z,69.11
2023-02-17T22:58:11.254Z,69.14
2023-02-17T23:01:20.601Z,69.15
2023-02-17T23:04:22.185Z,69.16
2023-02-17T23:07:24.203Z,69.18
2023-02-17T23:10:25.726Z,69.16
2023-02-17T23:13:27.283Z,69.27
2023-02-17T23:16:28.842Z,69.37
2023-02-17T23:19:30.944Z,69.43
2023-02-17T23:22:32.628Z,69.39
2023-02-17T23:25:34.436Z,69.35
2023-02-17T23:28:36.126Z,69.40
2023-02-17T23:31:38.373Z,69.42
2023-02-17T23:34:40.297Z,69.37
2023-02-17T23:37:42.050Z,69.49
2023-02-17T23:40:47.170Z,69.59
2023-02-17T23:43:48.745Z,69.59
2023-02-17T23:46:50.395Z,69.66
2023-02-17T23:49:52.005Z,69.64
2023-02-17T23:52:53.576Z,69.78
2023-02-17T23:56:02.999Z,69.79
2023-02-17T23:59:04.705Z,70.01
